sensor_id;sensor_type;location;lat;lon;timestamp;P1;durP1;ratioP1;P2;durP2;ratioP2
43337;SDS011;28933;52.492;13.434;2023-05-10T00:01:46;6.80;;;4.15;;
43337;SDS011;28933;52.492;13.434;2023-05-10T00:04:11;8.35;;;4.30;;
43337;SDS011;28933;52.492;13.434;2023-05-10T00:06:37;7.72;;;4.60;;
43337;SDS011;28933;52.492;13.434;2023-05-10T00:09:02;5.80;;;4.38;;
43337;SDS011;28933;52.492;13.434;2023-05-10T00:11:28;5.68;;;3.83;;
43337;SDS011;28933;52.492;13.434;2023-05-10T00:13:54;6.18;;;4.57;;
43337;SDS011;28933;52.492;13.434;2023-05-10T00:16:20;6.85;;;3.85;;
43337;SDS011;28933;52.492;13.434;2023-05-10T00:18:45;6.25;;;4.15;;
43337;SDS011;28933;52.492;13.434;2023-05-10T00:21:11;6.10;;;4.25;;
43337;SDS011;28933;52.492;13.434;2023-05-10T00:23:37;8.02;;;4.65;;
43337;SDS011;28933;52.492;13.434;2023-05-10T00:26:03;5.90;;;4.13;;
43337;SDS011;28933;52.492;13.434;2023-05-10T00:28:28;5.25;;;2.88;;
43337;SDS011;28933;52.492;13.434;2023-05-10T00:30:54;6.28;;;4.00;;
43337;SDS011;28933;52.492;13.434;2023-05-10T00:33:20;6.45;;;4.30;;
43337;SDS011;28933;52.492;13.434;2023-05-10T00:35:46;7.38;;;4.65;;
43337;SDS011;28933;52.492;13.434;2023-05-10T00:38:11;7.32;;;4.88;;
43337;SDS011;28933;52.492;13.434;2023-05-10T00:40:37;9.43;;;4.85;;
43337;SDS011;28933;52.492;13.434;2023-05-10T00:43:03;6.95;;;4.80;;
43337;SDS011;28933;52.492;13.434;2023-05-10T00:45:29;7.65;;;4.50;;
43337;SDS011;28933;52.492;13.434;2023-05-10T00:47:57;5.30;;;4.20;;
43337;SDS011;28933;52.492;13.434;2023-05-10T00:50:25;5.50;;;4.15;;
43337;SDS011;28933;52.492;13.434;2023-05-10T00:52:51;6.53;;;4.55;;
43337;SDS011;28933;52.492;13.434;2023-05-10T00:55:17;5.70;;;4.70;;
43337;SDS011;28933;52.492;13.434;2023-05-10T00:57:43;6.80;;;5.75;;
43337;SDS011;28933;52.492;13.434;2023-05-10T01:00:09;5.78;;;4.70;;
43337;SDS011;28933;52.492;13.434;2023-05-10T01:02:36;6.93;;;5.03;;
43337;SDS011;28933;52.492;13.434;2023-05-10T01:05:02;9.30;;;5.85;;
43337;SDS011;28933;52.492;13.434;2023-05-10T01:07:31;6.68;;;4.72;;
43337;SDS011;28933;52.492;13.434;2023-05-10T01:09:57;5.45;;;4.45;;
43337;SDS011;28933;52.492;13.434;2023-05-10T01:12:22;6.85;;;4.90;;
43337;SDS011;28933;52.492;13.434;2023-05-10T01:14:48;9.07;;;4.75;;
43337;SDS011;28933;52.492;13.434;2023-05-10T01:17:14;6.60;;;5.07;;
43337;SDS011;28933;52.492;13.434;2023-05-10T01:19:41;7.43;;;4.65;;
43337;SDS011;28933;52.492;13.434;2023-05-10T01:38:38;7.63;;;5.13;;
43337;SDS011;28933;52.492;13.434;2023-05-10T01:46:44;5.88;;;4.57;;
43337;SDS011;28933;52.492;13.434;2023-05-10T01:49:16;5.18;;;4.20;;
43337;SDS011;28933;52.492;13.434;2023-05-10T01:51:48;6.10;;;4.50;;
43337;SDS011;28933;52.492;13.434;2023-05-10T01:54:20;9.63;;;4.90;;
43337;SDS011;28933;52.492;13.434;2023-05-10T01:56:47;6.93;;;4.63;;
43337;SDS011;28933;52.492;13.434;2023-05-10T01:59:19;5.63;;;4.20;;
43337;SDS011;28933;52.492;13.434;2023-05-10T02:01:47;7.30;;;4.38;;
43337;SDS011;28933;52.492;13.434;2023-05-10T02:04:15;5.18;;;4.05;;
43337;SDS011;28933;52.492;13.434;2023-05-10T02:06:42;6.03;;;4.45;;
43337;SDS011;28933;52.492;13.434;2023-05-10T02:09:10;6.38;;;4.85;;
43337;SDS011;28933;52.492;13.434;2023-05-10T02:11:39;7.03;;;4.50;;
43337;SDS011;28933;52.492;13.434;2023-05-10T02:14:07;6.32;;;4.53;;
43337;SDS011;28933;52.492;13.434;2023-05-10T02:16:35;7.47;;;4.78;;
43337;SDS011;28933;52.492;13.434;2023-05-10T02:19:02;6.07;;;4.65;;
43337;SDS011;28933;52.492;13.434;2023-05-10T02:21:29;5.75;;;4.10;;
43337;SDS011;28933;52.492;13.434;2023-05-10T02:23:56;5.63;;;4.28;;
43337;SDS011;28933;52.492;13.434;2023-05-10T02:26:23;5.75;;;4.55;;
43337;SDS011;28933;52.492;13.434;2023-05-10T02:28:50;6.65;;;4.72;;
43337;SDS011;28933;52.492;13.434;2023-05-10T02:31:17;9.35;;;4.70;;
43337;SDS011;28933;52.492;13.434;2023-05-10T02:33:44;7.57;;;4.80;;
43337;SDS011;28933;52.492;13.434;2023-05-10T02:36:12;7.57;;;5.13;;
43337;SDS011;28933;52.492;13.434;2023-05-10T02:38:38;6.07;;;4.32;;
43337;SDS011;28933;52.492;13.434;2023-05-10T02:41:05;7.13;;;4.90;;
43337;SDS011;28933;52.492;13.434;2023-05-10T02:43:35;7.88;;;4.75;;
43337;SDS011;28933;52.492;13.434;2023-05-10T02:46:02;6.10;;;4.95;;
43337;SDS011;28933;52.492;13.434;2023-05-10T02:48:28;6.38;;;4.68;;
43337;SDS011;28933;52.492;13.434;2023-05-10T02:50:54;7.68;;;4.53;;
43337;SDS011;28933;52.492;13.434;2023-05-10T02:53:30;6.63;;;5.10;;
43337;SDS011;28933;52.492;13.434;2023-05-10T02:55:58;6.60;;;4.35;;
43337;SDS011;28933;52.492;13.434;2023-05-10T02:58:26;6.35;;;3.97;;
43337;SDS011;28933;52.492;13.434;2023-05-10T03:00:52;5.50;;;4.30;;
43337;SDS011;28933;52.492;13.434;2023-05-10T03:03:18;7.80;;;4.57;;
43337;SDS011;28933;52.492;13.434;2023-05-10T03:05:44;7.03;;;4.70;;
43337;SDS011;28933;52.492;13.434;2023-05-10T03:08:10;6.28;;;4.40;;
43337;SDS011;28933;52.492;13.434;2023-05-10T03:10:38;6.75;;;4.53;;
43337;SDS011;28933;52.492;13.434;2023-05-10T03:13:13;8.73;;;5.22;;
43337;SDS011;28933;52.492;13.434;2023-05-10T03:18:50;6.18;;;4.28;;
43337;SDS011;28933;52.492;13.434;2023-05-10T03:21:25;6.32;;;4.70;;
43337;SDS011;28933;52.492;13.434;2023-05-10T03:24:04;6.05;;;4.45;;
43337;SDS011;28933;52.492;13.434;2023-05-10T03:26:32;7.93;;;4.13;;
43337;SDS011;28933;52.492;13.434;2023-05-10T03:28:58;5.30;;;4.13;;
43337;SDS011;28933;52.492;13.434;2023-05-10T03:31:25;5.57;;;4.13;;
43337;SDS011;28933;52.492;13.434;2023-05-10T03:33:51;6.40;;;4.30;;
43337;SDS011;28933;52.492;13.434;2023-05-10T03:36:17;5.65;;;4.30;;
43337;SDS011;28933;52.492;13.434;2023-05-10T03:38:43;6.82;;;4.65;;
43337;SDS011;28933;52.492;13.434;2023-05-10T03:41:09;6.40;;;4.30;;
43337;SDS011;28933;52.492;13.434;2023-05-10T03:43:35;6.47;;;4.28;;
43337;SDS011;28933;52.492;13.434;2023-05-10T03:46:04;7.00;;;4.45;;
43337;SDS011;28933;52.492;13.434;2023-05-10T03:48:30;6.32;;;4.32;;
43337;SDS011;28933;52.492;13.434;2023-05-10T03:50:57;7.38;;;4.72;;
43337;SDS011;28933;52.492;13.434;2023-05-10T03:53:23;6.68;;;4.18;;
43337;SDS011;28933;52.492;13.434;2023-05-10T03:55:48;6.75;;;4.20;;
43337;SDS011;28933;52.492;13.434;2023-05-10T03:58:14;6.72;;;4.03;;
43337;SDS011;28933;52.492;13.434;2023-05-10T04:00:40;6.78;;;4.40;;
43337;SDS011;28933;52.492;13.434;2023-05-10T04:03:09;6.30;;;4.38;;
43337;SDS011;28933;52.492;13.434;2023-05-10T04:05:35;5.78;;;4.30;;
43337;SDS011;28933;52.492;13.434;2023-05-10T04:08:01;7.90;;;4.85;;
43337;SDS011;28933;52.492;13.434;2023-05-10T04:10:27;6.72;;;4.40;;
43337;SDS011;28933;52.492;13.434;2023-05-10T04:12:53;5.47;;;4.07;;
43337;SDS011;28933;52.492;13.434;2023-05-10T04:15:18;4.85;;;3.47;;
43337;SDS011;28933;52.492;13.434;2023-05-10T04:17:44;6.72;;;4.75;;
43337;SDS011;28933;52.492;13.434;2023-05-10T04:20:10;6.45;;;3.70;;
43337;SDS011;28933;52.492;13.434;2023-05-10T04:22:36;5.53;;;3.60;;
43337;SDS011;28933;52.492;13.434;2023-05-10T04:25:02;6.47;;;4.03;;
43337;SDS011;28933;52.492;13.434;2023-05-10T04:27:28;6.43;;;4.50;;
43337;SDS011;28933;52.492;13.434;2023-05-10T04:29:53;5.82;;;4.20;;
43337;SDS011;28933;52.492;13.434;2023-05-10T04:32:19;5.55;;;3.53;;
43337;SDS011;28933;52.492;13.434;2023-05-10T04:34:45;7.68;;;3.97;;
43337;SDS011;28933;52.492;13.434;2023-05-10T04:37:11;6.47;;;4.00;;
43337;SDS011;28933;52.492;13.434;2023-05-10T04:39:36;6.30;;;3.58;;
43337;SDS011;28933;52.492;13.434;2023-05-10T04:42:02;5.90;;;3.58;;
43337;SDS011;28933;52.492;13.434;2023-05-10T04:44:28;7.47;;;4.13;;
43337;SDS011;28933;52.492;13.434;2023-05-10T04:46:54;7.20;;;4.25;;
43337;SDS011;28933;52.492;13.434;2023-05-10T04:49:20;6.63;;;4.43;;
43337;SDS011;28933;52.492;13.434;2023-05-10T04:51:46;8.10;;;4.20;;
43337;SDS011;28933;52.492;13.434;2023-05-10T04:54:12;5.57;;;3.75;;
43337;SDS011;28933;52.492;13.434;2023-05-10T04:56:37;5.05;;;3.72;;
43337;SDS011;28933;52.492;13.434;2023-05-10T04:59:03;4.90;;;3.67;;
43337;SDS011;28933;52.492;13.434;2023-05-10T05:01:29;5.32;;;3.63;;
43337;SDS011;28933;52.492;13.434;2023-05-10T05:03:54;7.32;;;3.95;;
43337;SDS011;28933;52.492;13.434;2023-05-10T05:06:20;6.40;;;4.15;;
43337;SDS011;28933;52.492;13.434;2023-05-10T05:08:46;7.03;;;4.15;;
43337;SDS011;28933;52.492;13.434;2023-05-10T05:11:11;6.10;;;3.63;;
43337;SDS011;28933;52.492;13.434;2023-05-10T05:13:37;7.88;;;3.50;;
43337;SDS011;28933;52.492;13.434;2023-05-10T05:16:04;9.25;;;4.05;;
43337;SDS011;28933;52.492;13.434;2023-05-10T05:18:30;5.75;;;3.78;;
43337;SDS011;28933;52.492;13.434;2023-05-10T05:20:56;9.90;;;4.05;;
43337;SDS011;28933;52.492;13.434;2023-05-10T05:23:21;5.22;;;3.50;;
43337;SDS011;28933;52.492;13.434;2023-05-10T05:25:50;5.88;;;3.53;;
43337;SDS011;28933;52.492;13.434;2023-05-10T05:28:17;28.30;;;4.03;;
43337;SDS011;28933;52.492;13.434;2023-05-10T05:30:43;6.35;;;3.85;;
43337;SDS011;28933;52.492;13.434;2023-05-10T05:33:09;7.00;;;3.72;;
43337;SDS011;28933;52.492;13.434;2023-05-10T05:35:34;9.25;;;3.45;;
43337;SDS011;28933;52.492;13.434;2023-05-10T05:38:00;5.45;;;3.50;;
43337;SDS011;28933;52.492;13.434;2023-05-10T05:40:26;4.50;;;3.22;;
43337;SDS011;28933;52.492;13.434;2023-05-10T05:42:51;5.45;;;3.20;;
43337;SDS011;28933;52.492;13.434;2023-05-10T05:45:17;5.93;;;3.65;;
43337;SDS011;28933;52.492;13.434;2023-05-10T05:47:43;8.00;;;3.50;;
43337;SDS011;28933;52.492;13.434;2023-05-10T05:50:08;4.90;;;3.03;;
43337;SDS011;28933;52.492;13.434;2023-05-10T05:52:34;5.03;;;3.38;;
43337;SDS011;28933;52.492;13.434;2023-05-10T05:55:00;6.13;;;3.65;;
43337;SDS011;28933;52.492;13.434;2023-05-10T05:57:26;3.92;;;2.85;;
43337;SDS011;28933;52.492;13.434;2023-05-10T05:59:52;8.65;;;2.90;;
43337;SDS011;28933;52.492;13.434;2023-05-10T06:02:17;4.40;;;2.67;;
43337;SDS011;28933;52.492;13.434;2023-05-10T06:04:43;5.55;;;2.53;;
43337;SDS011;28933;52.492;13.434;2023-05-10T06:07:09;5.28;;;2.47;;
43337;SDS011;28933;52.492;13.434;2023-05-10T06:09:34;5.70;;;2.80;;
43337;SDS011;28933;52.492;13.434;2023-05-10T06:12:00;4.57;;;2.70;;
43337;SDS011;28933;52.492;13.434;2023-05-10T06:14:26;6.35;;;3.10;;
43337;SDS011;28933;52.492;13.434;2023-05-10T06:16:52;5.22;;;3.13;;
43337;SDS011;28933;52.492;13.434;2023-05-10T06:19:18;5.40;;;3.05;;
43337;SDS011;28933;52.492;13.434;2023-05-10T06:21:43;6.13;;;2.88;;
43337;SDS011;28933;52.492;13.434;2023-05-10T06:24:09;3.30;;;2.47;;
43337;SDS011;28933;52.492;13.434;2023-05-10T06:26:35;5.25;;;2.70;;
43337;SDS011;28933;52.492;13.434;2023-05-10T06:29:00;4.47;;;2.33;;
43337;SDS011;28933;52.492;13.434;2023-05-10T06:31:26;4.97;;;2.50;;
43337;SDS011;28933;52.492;13.434;2023-05-10T06:33:52;8.18;;;3.00;;
43337;SDS011;28933;52.492;13.434;2023-05-10T06:36:17;3.72;;;2.58;;
43337;SDS011;28933;52.492;13.434;2023-05-10T06:38:43;6.90;;;2.55;;
43337;SDS011;28933;52.492;13.434;2023-05-10T06:41:09;4.00;;;2.22;;
43337;SDS011;28933;52.492;13.434;2023-05-10T06:43:34;4.53;;;3.13;;
43337;SDS011;28933;52.492;13.434;2023-05-10T06:46:00;4.45;;;2.83;;
43337;SDS011;28933;52.492;13.434;2023-05-10T06:48:26;5.40;;;2.50;;
43337;SDS011;28933;52.492;13.434;2023-05-10T06:50:51;4.05;;;2.97;;
43337;SDS011;28933;52.492;13.434;2023-05-10T06:53:17;5.65;;;2.25;;
43337;SDS011;28933;52.492;13.434;2023-05-10T06:55:43;7.10;;;2.97;;
43337;SDS011;28933;52.492;13.434;2023-05-10T06:58:08;4.68;;;2.30;;
43337;SDS011;28933;52.492;13.434;2023-05-10T07:00:34;4.70;;;2.35;;
43337;SDS011;28933;52.492;13.434;2023-05-10T07:03:00;4.65;;;2.55;;
43337;SDS011;28933;52.492;13.434;2023-05-10T07:05:25;4.40;;;2.80;;
43337;SDS011;28933;52.492;13.434;2023-05-10T07:07:52;3.55;;;2.08;;
43337;SDS011;28933;52.492;13.434;2023-05-10T07:10:18;5.78;;;2.70;;
43337;SDS011;28933;52.492;13.434;2023-05-10T07:12:43;3.00;;;2.03;;
43337;SDS011;28933;52.492;13.434;2023-05-10T07:15:09;3.25;;;2.28;;
43337;SDS011;28933;52.492;13.434;2023-05-10T07:17:35;3.80;;;2.22;;
43337;SDS011;28933;52.492;13.434;2023-05-10T07:20:01;7.72;;;2.85;;
43337;SDS011;28933;52.492;13.434;2023-05-10T07:22:27;4.38;;;2.35;;
43337;SDS011;28933;52.492;13.434;2023-05-10T07:24:52;4.70;;;2.58;;
43337;SDS011;28933;52.492;13.434;2023-05-10T07:27:18;4.28;;;2.47;;
43337;SDS011;28933;52.492;13.434;2023-05-10T07:29:44;6.57;;;2.42;;
43337;SDS011;28933;52.492;13.434;2023-05-10T07:32:09;3.65;;;2.28;;
43337;SDS011;28933;52.492;13.434;2023-05-10T07:34:35;4.82;;;2.58;;
43337;SDS011;28933;52.492;13.434;2023-05-10T07:37:01;6.60;;;2.83;;
43337;SDS011;28933;52.492;13.434;2023-05-10T07:39:27;2.95;;;1.80;;
43337;SDS011;28933;52.492;13.434;2023-05-10T07:41:53;4.38;;;2.20;;
43337;SDS011;28933;52.492;13.434;2023-05-10T07:44:19;4.57;;;2.03;;
43337;SDS011;28933;52.492;13.434;2023-05-10T07:46:45;3.80;;;2.13;;
43337;SDS011;28933;52.492;13.434;2023-05-10T07:49:11;3.80;;;2.55;;
43337;SDS011;28933;52.492;13.434;2023-05-10T07:51:37;2.97;;;2.05;;
43337;SDS011;28933;52.492;13.434;2023-05-10T07:54:02;4.20;;;2.63;;
43337;SDS011;28933;52.492;13.434;2023-05-10T07:56:29;4.57;;;2.33;;
43337;SDS011;28933;52.492;13.434;2023-05-10T07:58:56;3.85;;;2.25;;
43337;SDS011;28933;52.492;13.434;2023-05-10T08:01:27;3.47;;;2.08;;
43337;SDS011;28933;52.492;13.434;2023-05-10T08:03:56;5.05;;;2.08;;
43337;SDS011;28933;52.492;13.434;2023-05-10T08:06:21;3.30;;;2.20;;
43337;SDS011;28933;52.492;13.434;2023-05-10T08:08:47;3.03;;;2.28;;
43337;SDS011;28933;52.492;13.434;2023-05-10T08:11:20;5.30;;;2.80;;
43337;SDS011;28933;52.492;13.434;2023-05-10T08:13:46;4.82;;;2.03;;
43337;SDS011;28933;52.492;13.434;2023-05-10T08:16:12;3.53;;;2.30;;
43337;SDS011;28933;52.492;13.434;2023-05-10T08:18:38;3.47;;;2.28;;
43337;SDS011;28933;52.492;13.434;2023-05-10T08:21:05;6.05;;;2.53;;
43337;SDS011;28933;52.492;13.434;2023-05-10T08:23:30;3.58;;;2.17;;
43337;SDS011;28933;52.492;13.434;2023-05-10T08:25:56;4.15;;;2.33;;
43337;SDS011;28933;52.492;13.434;2023-05-10T08:28:22;3.53;;;2.30;;
43337;SDS011;28933;52.492;13.434;2023-05-10T08:30:49;3.10;;;2.20;;
43337;SDS011;28933;52.492;13.434;2023-05-10T08:33:15;4.50;;;2.10;;
43337;SDS011;28933;52.492;13.434;2023-05-10T08:35:40;7.30;;;2.10;;
43337;SDS011;28933;52.492;13.434;2023-05-10T08:38:06;3.45;;;2.03;;
43337;SDS011;28933;52.492;13.434;2023-05-10T08:40:32;3.63;;;2.20;;
43337;SDS011;28933;52.492;13.434;2023-05-10T08:43:08;3.15;;;2.00;;
43337;SDS011;28933;52.492;13.434;2023-05-10T08:45:40;5.53;;;2.33;;
43337;SDS011;28933;52.492;13.434;2023-05-10T08:48:08;4.85;;;2.58;;
43337;SDS011;28933;52.492;13.434;2023-05-10T08:50:35;6.47;;;2.20;;
43337;SDS011;28933;52.492;13.434;2023-05-10T08:53:03;9.75;;;2.60;;
43337;SDS011;28933;52.492;13.434;2023-05-10T08:55:30;4.97;;;2.05;;
43337;SDS011;28933;52.492;13.434;2023-05-10T08:57:58;6.00;;;2.05;;
43337;SDS011;28933;52.492;13.434;2023-05-10T09:00:24;3.60;;;2.17;;
43337;SDS011;28933;52.492;13.434;2023-05-10T09:02:51;7.95;;;2.05;;
43337;SDS011;28933;52.492;13.434;2023-05-10T09:05:17;4.53;;;2.80;;
43337;SDS011;28933;52.492;13.434;2023-05-10T09:07:43;5.30;;;2.45;;
43337;SDS011;28933;52.492;13.434;2023-05-10T09:10:09;4.97;;;2.00;;
43337;SDS011;28933;52.492;13.434;2023-05-10T09:12:36;3.10;;;1.95;;
43337;SDS011;28933;52.492;13.434;2023-05-10T09:15:03;8.25;;;2.53;;
43337;SDS011;28933;52.492;13.434;2023-05-10T09:17:30;4.40;;;2.38;;
43337;SDS011;28933;52.492;13.434;2023-05-10T09:20:02;8.13;;;2.08;;
43337;SDS011;28933;52.492;13.434;2023-05-10T09:22:32;7.80;;;2.10;;
43337;SDS011;28933;52.492;13.434;2023-05-10T09:27:30;4.68;;;1.77;;
43337;SDS011;28933;52.492;13.434;2023-05-10T09:29:55;4.97;;;2.30;;
43337;SDS011;28933;52.492;13.434;2023-05-10T09:32:27;3.20;;;2.10;;
43337;SDS011;28933;52.492;13.434;2023-05-10T09:35:11;18.45;;;2.80;;
43337;SDS011;28933;52.492;13.434;2023-05-10T09:37:39;3.83;;;2.03;;
43337;SDS011;28933;52.492;13.434;2023-05-10T09:40:06;6.00;;;2.67;;
43337;SDS011;28933;52.492;13.434;2023-05-10T09:42:35;4.32;;;2.00;;
43337;SDS011;28933;52.492;13.434;2023-05-10T09:45:02;5.63;;;2.22;;
43337;SDS011;28933;52.492;13.434;2023-05-10T09:47:34;5.68;;;2.70;;
43337;SDS011;28933;52.492;13.434;2023-05-10T09:50:01;6.00;;;2.20;;
43337;SDS011;28933;52.492;13.434;2023-05-10T09:52:45;4.10;;;2.17;;
43337;SDS011;28933;52.492;13.434;2023-05-10T09:55:22;4.10;;;2.33;;
43337;SDS011;28933;52.492;13.434;2023-05-10T09:57:49;3.92;;;2.30;;
43337;SDS011;28933;52.492;13.434;2023-05-10T10:00:26;3.35;;;2.30;;
43337;SDS011;28933;52.492;13.434;2023-05-10T10:02:56;4.53;;;2.20;;
43337;SDS011;28933;52.492;13.434;2023-05-10T10:07:58;4.78;;;2.00;;
43337;SDS011;28933;52.492;13.434;2023-05-10T10:10:25;3.65;;;2.25;;
43337;SDS011;28933;52.492;13.434;2023-05-10T10:12:52;4.10;;;2.65;;
43337;SDS011;28933;52.492;13.434;2023-05-10T10:15:18;3.90;;;1.70;;
43337;SDS011;28933;52.492;13.434;2023-05-10T10:17:45;2.92;;;1.98;;
43337;SDS011;28933;52.492;13.434;2023-05-10T10:20:11;4.22;;;2.17;;
43337;SDS011;28933;52.492;13.434;2023-05-10T10:22:43;3.22;;;2.33;;
43337;SDS011;28933;52.492;13.434;2023-05-10T10:25:10;4.35;;;2.50;;
43337;SDS011;28933;52.492;13.434;2023-05-10T10:30:24;9.32;;;2.28;;
43337;SDS011;28933;52.492;13.434;2023-05-10T10:33:18;6.22;;;2.35;;
43337;SDS011;28933;52.492;13.434;2023-05-10T10:36:05;5.15;;;2.47;;
43337;SDS011;28933;52.492;13.434;2023-05-10T10:39:07;5.22;;;2.50;;
43337;SDS011;28933;52.492;13.434;2023-05-10T10:50:05;4.32;;;2.00;;
43337;SDS011;28933;52.492;13.434;2023-05-10T10:52:39;3.38;;;2.17;;
43337;SDS011;28933;52.492;13.434;2023-05-10T11:02:56;4.28;;;2.17;;
43337;SDS011;28933;52.492;13.434;2023-05-10T11:08:26;3.07;;;2.20;;
43337;SDS011;28933;52.492;13.434;2023-05-10T11:13:28;3.80;;;1.90;;
43337;SDS011;28933;52.492;13.434;2023-05-10T11:15:55;2.78;;;1.80;;
43337;SDS011;28933;52.492;13.434;2023-05-10T11:20:51;5.53;;;1.92;;
43337;SDS011;28933;52.492;13.434;2023-05-10T11:23:21;4.00;;;2.40;;
43337;SDS011;28933;52.492;13.434;2023-05-10T11:25:47;7.30;;;2.15;;
43337;SDS011;28933;52.492;13.434;2023-05-10T11:28:14;9.10;;;2.80;;
43337;SDS011;28933;52.492;13.434;2023-05-10T11:30:42;6.00;;;3.05;;
43337;SDS011;28933;52.492;13.434;2023-05-10T11:33:09;8.00;;;2.17;;
43337;SDS011;28933;52.492;13.434;2023-05-10T11:35:40;2.55;;;1.67;;
43337;SDS011;28933;52.492;13.434;2023-05-10T11:38:09;3.42;;;1.98;;
43337;SDS011;28933;52.492;13.434;2023-05-10T11:40:35;5.40;;;2.13;;
43337;SDS011;28933;52.492;13.434;2023-05-10T11:43:02;6.07;;;2.10;;
43337;SDS011;28933;52.492;13.434;2023-05-10T11:45:29;2.72;;;1.63;;
43337;SDS011;28933;52.492;13.434;2023-05-10T11:47:57;10.52;;;1.98;;
43337;SDS011;28933;52.492;13.434;2023-05-10T11:50:24;5.90;;;2.80;;
43337;SDS011;28933;52.492;13.434;2023-05-10T11:52:54;3.38;;;1.98;;
43337;SDS011;28933;52.492;13.434;2023-05-10T11:55:20;17.10;;;2.70;;
43337;SDS011;28933;52.492;13.434;2023-05-10T11:57:46;6.07;;;1.98;;
43337;SDS011;28933;52.492;13.434;2023-05-10T12:00:15;15.27;;;3.45;;
43337;SDS011;28933;52.492;13.434;2023-05-10T12:02:41;3.00;;;1.90;;
43337;SDS011;28933;52.492;13.434;2023-05-10T12:05:07;8.25;;;2.85;;
43337;SDS011;28933;52.492;13.434;2023-05-10T12:07:33;79.50;;;9.35;;
43337;SDS011;28933;52.492;13.434;2023-05-10T12:10:06;10.20;;;2.90;;
43337;SDS011;28933;52.492;13.434;2023-05-10T12:12:37;15.93;;;3.30;;
43337;SDS011;28933;52.492;13.434;2023-05-10T12:15:10;8.88;;;2.15;;
43337;SDS011;28933;52.492;13.434;2023-05-10T12:17:38;6.13;;;2.22;;
43337;SDS011;28933;52.492;13.434;2023-05-10T12:20:18;4.95;;;1.95;;
43337;SDS011;28933;52.492;13.434;2023-05-10T12:22:49;7.00;;;1.98;;
43337;SDS011;28933;52.492;13.434;2023-05-10T12:25:20;5.28;;;2.30;;
43337;SDS011;28933;52.492;13.434;2023-05-10T12:27:54;6.30;;;1.90;;
43337;SDS011;28933;52.492;13.434;2023-05-10T12:30:24;5.00;;;2.08;;
43337;SDS011;28933;52.492;13.434;2023-05-10T12:32:51;4.07;;;2.08;;
43337;SDS011;28933;52.492;13.434;2023-05-10T12:35:18;5.22;;;2.40;;
43337;SDS011;28933;52.492;13.434;2023-05-10T12:37:49;4.72;;;1.75;;
43337;SDS011;28933;52.492;13.434;2023-05-10T12:40:16;12.13;;;3.20;;
43337;SDS011;28933;52.492;13.434;2023-05-10T12:42:41;9.13;;;2.38;;
43337;SDS011;28933;52.492;13.434;2023-05-10T12:45:09;5.93;;;2.20;;
43337;SDS011;28933;52.492;13.434;2023-05-10T12:47:42;6.05;;;2.30;;
43337;SDS011;28933;52.492;13.434;2023-05-10T12:50:08;4.32;;;2.42;;
43337;SDS011;28933;52.492;13.434;2023-05-10T12:52:34;3.15;;;1.95;;
43337;SDS011;28933;52.492;13.434;2023-05-10T12:55:00;5.97;;;1.90;;
43337;SDS011;28933;52.492;13.434;2023-05-10T12:57:26;6.35;;;1.85;;
43337;SDS011;28933;52.492;13.434;2023-05-10T12:59:54;6.55;;;2.25;;
43337;SDS011;28933;52.492;13.434;2023-05-10T13:02:20;7.65;;;2.20;;
43337;SDS011;28933;52.492;13.434;2023-05-10T13:04:46;8.50;;;2.50;;
43337;SDS011;28933;52.492;13.434;2023-05-10T13:07:12;19.98;;;2.55;;
43337;SDS011;28933;52.492;13.434;2023-05-10T13:09:38;7.00;;;2.10;;
43337;SDS011;28933;52.492;13.434;2023-05-10T13:12:04;6.90;;;2.88;;
43337;SDS011;28933;52.492;13.434;2023-05-10T13:14:30;4.53;;;2.30;;
43337;SDS011;28933;52.492;13.434;2023-05-10T13:16:56;8.75;;;2.72;;
43337;SDS011;28933;52.492;13.434;2023-05-10T13:19:22;3.47;;;2.22;;
43337;SDS011;28933;52.492;13.434;2023-05-10T13:21:48;2.92;;;1.67;;
43337;SDS011;28933;52.492;13.434;2023-05-10T13:24:13;6.32;;;2.13;;
43337;SDS011;28933;52.492;13.434;2023-05-10T13:26:39;5.82;;;1.90;;
43337;SDS011;28933;52.492;13.434;2023-05-10T13:29:05;3.55;;;2.03;;
43337;SDS011;28933;52.492;13.434;2023-05-10T13:31:31;4.50;;;1.75;;
43337;SDS011;28933;52.492;13.434;2023-05-10T13:33:57;5.47;;;2.15;;
43337;SDS011;28933;52.492;13.434;2023-05-10T13:36:23;3.25;;;1.98;;
43337;SDS011;28933;52.492;13.434;2023-05-10T13:38:48;3.45;;;1.70;;
43337;SDS011;28933;52.492;13.434;2023-05-10T13:41:14;3.65;;;1.98;;
43337;SDS011;28933;52.492;13.434;2023-05-10T13:43:39;1.95;;;1.42;;
43337;SDS011;28933;52.492;13.434;2023-05-10T13:46:05;7.60;;;1.92;;
43337;SDS011;28933;52.492;13.434;2023-05-10T13:48:31;4.82;;;1.50;;
43337;SDS011;28933;52.492;13.434;2023-05-10T13:50:56;2.60;;;1.83;;
43337;SDS011;28933;52.492;13.434;2023-05-10T13:53:22;2.22;;;1.70;;
43337;SDS011;28933;52.492;13.434;2023-05-10T13:55:48;2.33;;;1.65;;
43337;SDS011;28933;52.492;13.434;2023-05-10T13:58:14;4.03;;;1.85;;
43337;SDS011;28933;52.492;13.434;2023-05-10T14:00:39;4.72;;;2.22;;
43337;SDS011;28933;52.492;13.434;2023-05-10T14:03:05;2.92;;;2.00;;
43337;SDS011;28933;52.492;13.434;2023-05-10T14:05:31;3.03;;;1.80;;
43337;SDS011;28933;52.492;13.434;2023-05-10T14:07:57;3.90;;;2.45;;
43337;SDS011;28933;52.492;13.434;2023-05-10T14:10:23;2.85;;;1.63;;
43337;SDS011;28933;52.492;13.434;2023-05-10T14:12:49;3.08;;;1.77;;
43337;SDS011;28933;52.492;13.434;2023-05-10T14:15:15;2.40;;;1.67;;
43337;SDS011;28933;52.492;13.434;2023-05-10T14:17:40;2.58;;;1.52;;
43337;SDS011;28933;52.492;13.434;2023-05-10T14:20:06;3.60;;;1.60;;
43337;SDS011;28933;52.492;13.434;2023-05-10T14:22:32;2.08;;;1.40;;
43337;SDS011;28933;52.492;13.434;2023-05-10T14:24:58;4.45;;;1.30;;
43337;SDS011;28933;52.492;13.434;2023-05-10T14:27:23;5.20;;;1.52;;
43337;SDS011;28933;52.492;13.434;2023-05-10T14:29:49;3.88;;;1.70;;
43337;SDS011;28933;52.492;13.434;2023-05-10T14:32:15;2.42;;;1.70;;
43337;SDS011;28933;52.492;13.434;2023-05-10T14:34:40;5.82;;;2.53;;
43337;SDS011;28933;52.492;13.434;2023-05-10T14:37:06;3.75;;;1.40;;
43337;SDS011;28933;52.492;13.434;2023-05-10T14:39:31;6.03;;;1.90;;
43337;SDS011;28933;52.492;13.434;2023-05-10T14:41:58;2.60;;;1.65;;
43337;SDS011;28933;52.492;13.434;2023-05-10T14:44:23;4.50;;;2.08;;
43337;SDS011;28933;52.492;13.434;2023-05-10T14:46:49;2.03;;;1.52;;
43337;SDS011;28933;52.492;13.434;2023-05-10T14:49:15;2.85;;;1.50;;
43337;SDS011;28933;52.492;13.434;2023-05-10T14:51:41;2.60;;;1.70;;
43337;SDS011;28933;52.492;13.434;2023-05-10T14:54:06;1.88;;;1.58;;
43337;SDS011;28933;52.492;13.434;2023-05-10T14:56:32;3.65;;;2.00;;
43337;SDS011;28933;52.492;13.434;2023-05-10T14:58:58;3.10;;;1.83;;
43337;SDS011;28933;52.492;13.434;2023-05-10T15:01:25;2.67;;;1.65;;
43337;SDS011;28933;52.492;13.434;2023-05-10T15:03:50;3.13;;;1.70;;
43337;SDS011;28933;52.492;13.434;2023-05-10T15:06:16;2.65;;;1.70;;
43337;SDS011;28933;52.492;13.434;2023-05-10T15:08:42;3.17;;;1.90;;
43337;SDS011;28933;52.492;13.434;2023-05-10T15:11:08;3.17;;;1.92;;
43337;SDS011;28933;52.492;13.434;2023-05-10T15:13:33;2.38;;;1.60;;
43337;SDS011;28933;52.492;13.434;2023-05-10T15:15:59;3.80;;;1.83;;
43337;SDS011;28933;52.492;13.434;2023-05-10T15:18:25;2.67;;;1.77;;
43337;SDS011;28933;52.492;13.434;2023-05-10T15:20:51;4.82;;;1.73;;
43337;SDS011;28933;52.492;13.434;2023-05-10T15:23:16;3.97;;;2.08;;
43337;SDS011;28933;52.492;13.434;2023-05-10T15:25:42;3.45;;;2.00;;
43337;SDS011;28933;52.492;13.434;2023-05-10T15:28:08;7.10;;;1.83;;
43337;SDS011;28933;52.492;13.434;2023-05-10T15:30:33;3.95;;;1.95;;